Time;durP1;ratioP1;P1;durP2;ratioP2;P2;SDS_P1;SDS_P2;PMS_P1;PMS_P2;Temp;Humidity;BMP_temperature;BMP_pressure;BME280_temperature;BME280_humidity;BME280_pressure;Samples;Min_cycle;Max_cycle;Signal;HPM_P1;HPM_P2
2022/09/29 00:01:02;;;;;;;14.88;13.27;;;;;;;6.66;100.00;99901.19;4994619;28;20030;-86
2022/09/29 00:03:28;;;;;;;15.23;13.63;;;;;;;6.64;100.00;99902.25;5011298;28;20029;-87
2022/09/29 00:05:54;;;;;;;15.30;13.80;;;;;;;6.63;100.00;99911.88;5028303;28;20037;-87
2022/09/29 00:08:23;;;;;;;17.67;13.48;;;;;;;6.60;100.00;99904.25;5030964;28;20021;-87
2022/09/29 00:10:49;;;;;;;15.82;13.73;;;;;;;6.56;100.00;99906.25;5011939;28;20030;-87
2022/09/29 00:13:15;;;;;;;13.07;11.68;;;;;;;6.52;100.00;99914.44;4993606;28;20033;-87
2022/09/29 00:15:41;;;;;;;13.90;12.50;;;;;;;6.46;100.00;99910.50;5022891;28;20037;-86
2022/09/29 00:18:08;;;;;;;13.88;12.48;;;;;;;6.42;100.00;99911.66;5030385;28;20049;-87
2022/09/29 00:20:34;;;;;;;13.68;12.20;;;;;;;6.41;100.00;99912.59;5031248;28;20365;-87
2022/09/29 00:22:59;;;;;;;13.80;12.27;;;;;;;6.38;100.00;99907.56;5030149;28;20109;-87
2022/09/29 00:25:25;;;;;;;19.02;13.45;;;;;;;6.39;100.00;99911.00;5020762;28;20034;-87
2022/09/29 00:27:51;;;;;;;14.05;12.48;;;;;;;6.34;100.00;99898.28;5010958;28;20026;-87
2022/09/29 00:30:16;;;;;;;13.25;12.00;;;;;;;6.34;100.00;99907.91;5010497;28;20429;-87
2022/09/29 00:32:41;;;;;;;14.98;13.45;;;;;;;6.31;100.00;99905.50;5009336;28;20053;-87
2022/09/29 00:35:12;;;;;;;14.18;12.75;;;;;;;6.25;100.00;99906.78;5030675;28;20025;-87
2022/09/29 00:37:37;;;;;;;15.48;13.18;;;;;;;6.21;100.00;99907.94;5030880;28;20017;-87
2022/09/29 00:40:04;;;;;;;14.55;13.05;;;;;;;6.19;100.00;99908.06;5029968;28;20028;-87
2022/09/29 00:42:31;;;;;;;15.43;12.20;;;;;;;6.19;100.00;99900.22;5030099;28;20833;-87
2022/09/29 00:45:12;;;;;;;14.45;13.13;;;;;;;6.17;100.00;99904.72;5017058;28;20099;-86
2022/09/29 00:47:41;;;;;;;14.95;13.38;;;;;;;6.17;100.00;99911.72;5030638;28;20026;-87
2022/09/29 00:50:50;;;;;;;17.33;14.18;;;;;;;6.26;100.00;99909.28;5030540;28;20079;-87
2022/09/29 00:53:19;;;;;;;15.43;13.85;;;;;;;6.15;100.00;99909.22;5017718;28;20107;-87
2022/09/29 00:55:51;;;;;;;14.82;13.25;;;;;;;6.13;100.00;99912.88;5030877;28;20432;-86
2022/09/29 00:58:29;;;;;;;15.20;13.70;;;;;;;6.14;100.00;99904.94;5011903;28;20029;-87
2022/09/29 01:00:55;;;;;;;16.20;14.60;;;;;;;6.11;100.00;99899.94;5029999;28;20033;-86
2022/09/29 01:03:24;;;;;;;17.17;15.27;;;;;;;6.22;100.00;99899.16;5013667;28;20527;-87
2022/09/29 01:05:54;;;;;;;16.45;14.75;;;;;;;6.20;100.00;99903.66;5010793;28;20034;-87
2022/09/29 01:08:26;;;;;;;16.52;14.82;;;;;;;6.24;100.00;99894.66;5009436;28;20026;-86
2022/09/29 01:10:52;;;;;;;16.77;14.73;;;;;;;6.14;100.00;99899.72;5011087;28;20037;-87
2022/09/29 01:13:18;;;;;;;15.52;14.05;;;;;;;6.17;100.00;99901.28;5009827;28;20022;-87
2022/09/29 01:15:44;;;;;;;15.52;14.02;;;;;;;6.14;100.00;99888.44;5024653;28;20470;-87
2022/09/29 01:18:12;;;;;;;14.95;13.00;;;;;;;6.03;100.00;99897.03;5029876;28;20274;-86
2022/09/29 01:20:52;;;;;;;15.18;13.63;;;;;;;6.02;100.00;99890.16;5029441;28;20029;-86
2022/09/29 01:23:48;;;;;;;15.45;13.88;;;;;;;6.09;100.00;99901.81;5030322;28;20025;-86
2022/09/29 01:26:51;;;;;;;16.63;14.93;;;;;;;6.10;100.00;99902.66;5029462;28;20037;-86
2022/09/29 01:29:50;;;;;;;14.43;13.02;;;;;;;6.04;100.00;99895.25;5028779;28;20025;-86
2022/09/29 01:32:45;;;;;;;14.73;13.23;;;;;;;6.00;100.00;99902.44;5029518;28;20030;-86
2022/09/29 01:35:22;;;;;;;14.70;13.27;;;;;;;5.94;100.00;99898.50;5008122;28;20470;-87
2022/09/29 01:38:15;;;;;;;15.27;13.68;;;;;;;6.01;100.00;99904.16;5010282;28;20223;-87
2022/09/29 01:40:56;;;;;;;15.20;13.68;;;;;;;5.99;100.00;99906.00;5010357;28;20122;-86
2022/09/29 01:43:28;;;;;;;15.88;14.27;;;;;;;5.99;100.00;99911.22;5009117;28;20026;-86
2022/09/29 01:46:19;;;;;;;15.20;13.57;;;;;;;5.90;100.00;99904.03;5026908;28;20468;-86
2022/09/29 01:48:49;;;;;;;15.35;13.75;;;;;;;5.88;100.00;99900.66;5028358;28;20402;-86
2022/09/29 01:51:20;;;;;;;16.15;14.02;;;;;;;5.92;100.00;99907.38;5029278;28;20068;-86
2022/09/29 01:53:49;;;;;;;17.05;14.57;;;;;;;5.86;100.00;99905.16;5026350;28;20096;-86
2022/09/29 01:56:26;;;;;;;16.33;14.63;;;;;;;5.90;100.00;99906.66;5027629;28;20021;-86
2022/09/29 01:58:56;;;;;;;17.08;15.38;;;;;;;5.85;100.00;99913.94;5029784;28;20400;-86
2022/09/29 02:01:28;;;;;;;18.40;14.52;;;;;;;5.80;100.00;99910.81;5029556;28;20040;-88
2022/09/29 02:04:01;;;;;;;16.02;14.30;;;;;;;5.86;100.00;99913.00;5029409;28;20033;-88
2022/09/29 02:06:35;;;;;;;18.17;15.50;;;;;;;5.86;100.00;99902.56;5029360;28;20028;-87
2022/09/29 02:09:02;;;;;;;17.38;15.57;;;;;;;5.84;100.00;99902.66;5029837;28;20047;-88
2022/09/29 02:11:31;;;;;;;17.98;15.10;;;;;;;5.76;100.00;99904.13;5018903;28;20025;-88
2022/09/29 02:14:41;;;;;;;15.38;13.77;;;;;;;5.84;100.00;99909.66;5010561;28;20144;-88
2022/09/29 02:17:20;;;;;;;21.10;14.00;;;;;;;5.66;100.00;99910.00;4928392;29;20066;-87
2022/09/29 02:19:49;;;;;;;17.33;15.23;;;;;;;5.74;100.00;99911.25;4930228;29;20503;-87
2022/09/29 02:22:15;;;;;;;18.88;14.88;;;;;;;5.74;100.00;99911.25;4971124;28;20042;-87
2022/09/29 02:24:41;;;;;;;21.70;16.15;;;;;;;5.76;100.00;99911.97;5009359;28;20072;-87
2022/09/29 02:27:06;;;;;;;17.90;15.63;;;;;;;5.73;100.00;99909.56;5008894;28;20018;-88
2022/09/29 02:29:36;;;;;;;16.98;15.32;;;;;;;5.71;100.00;99911.47;5004818;28;20029;-87
2022/09/29 02:32:04;;;;;;;17.30;15.48;;;;;;;5.68;100.00;99911.66;4988947;28;20431;-87
2022/09/29 02:34:37;;;;;;;16.98;15.05;;;;;;;5.64;100.00;99917.09;4989998;28;20395;-87
2022/09/29 02:37:20;;;;;;;;;;;;;;;5.80;100.00;99916.03;4990140;28;20023;-87
2022/09/29 02:39:52;;;;;;;;;;;;;;;5.82;100.00;99914.16;4989530;28;19909;-87
2022/09/29 02:42:28;;;;;;;17.63;15.05;;;;;;;5.65;100.00;99908.34;4988860;28;20009;-87
2022/09/29 02:45:23;;;;;;;16.17;14.32;;;;;;;5.66;100.00;99915.22;4999934;28;20033;-87
2022/09/29 02:48:06;;;;;;;17.10;15.23;;;;;;;5.65;100.00;99908.34;4997712;28;20342;-87
2022/09/29 02:50:58;;;;;;;17.17;15.38;;;;;;;5.65;100.00;99908.34;5013140;28;20030;-87
2022/09/29 02:53:51;;;;;;;18.65;16.05;;;;;;;5.68;100.00;99916.88;5012089;28;20437;-87
2022/09/29 02:56:27;;;;;;;17.50;15.77;;;;;;;5.57;100.00;99910.59;5012426;28;20053;-87
2022/09/29 02:59:00;;;;;;;17.70;15.77;;;;;;;5.59;100.00;99911.34;5012738;28;20033;-87
2022/09/29 03:01:30;;;;;;;18.90;17.00;;;;;;;5.64;100.00;99906.66;5012677;28;20026;-86
2022/09/29 03:03:59;;;;;;;18.70;16.75;;;;;;;5.59;100.00;99919.16;5012889;28;20033;-87
2022/09/29 03:06:26;;;;;;;18.15;15.70;;;;;;;5.56;100.00;99914.16;5012301;28;20030;-87
2022/09/29 03:08:51;;;;;;;16.35;14.88;;;;;;;5.50;100.00;99918.97;5013068;28;20447;-87
2022/09/29 03:11:16;;;;;;;19.20;17.20;;;;;;;5.54;100.00;99916.03;5012335;28;20110;-87
2022/09/29 03:13:42;;;;;;;19.08;16.75;;;;;;;5.48;100.00;99913.84;5012161;28;20478;-86
2022/09/29 03:16:07;;;;;;;18.95;15.55;;;;;;;5.39;100.00;99914.47;5014755;28;20489;-84
2022/09/29 03:18:32;;;;;;;17.92;15.32;;;;;;;5.44;100.00;99915.00;5032701;28;20346;-87
2022/09/29 03:20:58;;;;;;;18.08;16.35;;;;;;;5.44;100.00;99917.59;5026047;28;20416;-87
2022/09/29 03:23:23;;;;;;;17.63;15.82;;;;;;;5.46;100.00;99907.06;5032087;28;20489;-86
2022/09/29 03:25:48;;;;;;;18.10;16.20;;;;;;;5.43;100.00;99913.31;5031023;28;20041;-86
2022/09/29 03:28:15;;;;;;;17.25;15.45;;;;;;;5.33;100.00;99922.72;5031006;28;20079;-87
2022/09/29 03:30:40;;;;;;;16.85;15.15;;;;;;;5.31;100.00;99914.16;5032474;28;20029;-87
2022/09/29 03:33:06;;;;;;;17.58;15.85;;;;;;;5.24;100.00;99918.13;5032092;28;20105;-87
2022/09/29 03:35:31;;;;;;;18.08;16.27;;;;;;;5.28;100.00;99919.59;5031738;28;20033;-86
2022/09/29 03:37:58;;;;;;;17.83;16.15;;;;;;;5.26;100.00;99921.47;5013836;28;20108;-87
2022/09/29 03:40:24;;;;;;;17.05;15.43;;;;;;;5.28;100.00;99924.81;5017726;28;20181;-86
2022/09/29 03:42:49;;;;;;;18.48;16.58;;;;;;;5.26;100.00;99921.47;4997144;28;20026;-86
2022/09/29 03:45:14;;;;;;;19.05;15.98;;;;;;;5.21;100.00;99918.34;5031426;28;20725;-87
2022/09/29 03:47:40;;;;;;;17.75;16.05;;;;;;;5.25;100.00;99914.56;5031905;28;20022;-86
2022/09/29 03:50:06;;;;;;;17.58;15.80;;;;;;;5.22;100.00;99917.41;5030685;28;20069;-87
2022/09/29 03:52:31;;;;;;;20.02;16.30;;;;;;;5.26;100.00;99924.06;5031632;28;20033;-87
2022/09/29 03:54:56;;;;;;;18.48;16.75;;;;;;;5.27;100.00;99917.91;5030389;28;20030;-86
2022/09/29 03:57:22;;;;;;;17.55;15.75;;;;;;;5.21;100.00;99924.38;5020417;28;20024;-87
2022/09/29 03:59:47;;;;;;;19.15;16.70;;;;;;;5.27;100.00;99928.34;5011886;28;20466;-87
2022/09/29 04:02:13;;;;;;;19.67;16.55;;;;;;;5.27;100.00;99923.13;5010467;28;20033;-86
2022/09/29 04:04:38;;;;;;;19.33;17.20;;;;;;;5.26;100.00;99926.69;4994250;28;20505;-86
2022/09/29 04:07:03;;;;;;;18.52;16.63;;;;;;;5.23;100.00;99927.72;5017068;28;20053;-87
2022/09/29 04:09:29;;;;;;;18.48;16.02;;;;;;;5.21;100.00;99928.75;5030306;28;20579;-87
2022/09/29 04:11:58;;;;;;;18.30;16.60;;;;;;;5.20;100.00;99932.28;5031165;28;20017;-87
2022/09/29 04:14:23;;;;;;;17.00;15.40;;;;;;;5.13;100.00;99931.00;5021078;28;20445;-87
2022/09/29 04:16:49;;;;;;;17.95;16.02;;;;;;;5.14;100.00;99937.91;5010962;28;20049;-87
2022/09/29 04:19:14;;;;;;;17.92;16.23;;;;;;;5.17;100.00;99937.69;5019638;28;20065;-88
2022/09/29 04:21:39;;;;;;;17.92;16.13;;;;;;;5.12;100.00;99934.56;5031495;28;20421;-87
2022/09/29 04:24:05;;;;;;;19.05;17.10;;;;;;;5.20;100.00;99945.31;5030165;28;20033;-87
2022/09/29 04:26:30;;;;;;;19.33;17.33;;;;;;;5.21;100.00;99944.41;5031432;28;20037;-87
2022/09/29 04:28:55;;;;;;;18.52;16.63;;;;;;;5.19;100.00;99944.47;5033310;28;20405;-87
2022/09/29 04:31:21;;;;;;;19.00;16.98;;;;;;;5.13;100.00;99946.66;5014133;28;20075;-87
2022/09/29 04:33:46;;;;;;;21.63;17.00;;;;;;;5.15;100.00;99950.84;4993902;28;20529;-87
2022/09/29 04:36:11;;;;;;;18.73;16.80;;;;;;;5.12;100.00;99950.19;5010782;28;20028;-87
2022/09/29 04:38:37;;;;;;;24.15;17.25;;;;;;;5.21;100.00;99947.00;5009246;28;20028;-87
2022/09/29 04:41:03;;;;;;;19.65;17.05;;;;;;;5.18;100.00;99949.78;4993928;28;20056;-87
2022/09/29 04:43:28;;;;;;;19.60;16.80;;;;;;;5.09;100.00;99947.81;5021752;28;20109;-87
2022/09/29 04:46:00;;;;;;;18.25;15.93;;;;;;;5.04;100.00;99954.16;5029485;28;20030;-87
2022/09/29 04:48:26;;;;;;;18.52;16.30;;;;;;;5.03;100.00;99952.47;5011535;28;20443;-87
2022/09/29 04:50:53;;;;;;;18.67;16.83;;;;;;;5.12;100.00;99950.19;5030796;28;20018;-86
2022/09/29 04:53:19;;;;;;;19.10;17.20;;;;;;;5.04;100.00;99950.72;5028751;28;20083;-86
2022/09/29 04:55:44;;;;;;;18.58;16.67;;;;;;;5.00;100.00;99957.91;5030789;28;20108;-87
2022/09/29 04:58:13;;;;;;;18.65;16.75;;;;;;;5.00;100.00;99957.91;5029424;28;20021;-86
2022/09/29 05:00:39;;;;;;;19.10;17.10;;;;;;;5.05;100.00;99955.00;5012552;28;20068;-87
2022/09/29 05:03:04;;;;;;;19.73;17.73;;;;;;;5.08;100.00;99959.16;5030330;28;20537;-87
2022/09/29 05:05:29;;;;;;;20.10;17.17;;;;;;;5.04;100.00;99964.59;5029094;28;20037;-86
2022/09/29 05:07:58;;;;;;;20.95;18.60;;;;;;;5.02;100.00;99961.25;5030344;28;20033;-86
2022/09/29 05:10:26;;;;;;;21.38;18.25;;;;;;;5.00;100.00;99968.31;5028988;28;20471;-86
2022/09/29 05:12:52;;;;;;;19.60;17.80;;;;;;;5.04;100.00;99968.97;5029447;28;20029;-87
2022/09/29 05:15:18;;;;;;;23.23;18.70;;;;;;;5.07;100.00;99973.13;5029793;28;20029;-86
2022/09/29 05:17:44;;;;;;;20.92;18.83;;;;;;;5.00;100.00;99975.31;5030532;28;20095;-87
2022/09/29 05:20:12;;;;;;;20.73;18.35;;;;;;;4.98;100.00;99980.63;5022639;28;20030;-87
2022/09/29 05:22:37;;;;;;;20.00;18.10;;;;;;;5.01;100.00;99984.81;5010327;28;20026;-86
2022/09/29 05:25:04;;;;;;;21.25;18.77;;;;;;;4.99;100.00;99982.28;5010827;28;20093;-87
2022/09/29 05:27:29;;;;;;;19.23;17.23;;;;;;;4.93;100.00;99993.13;4996109;28;20941;-86
2022/09/29 05:29:54;;;;;;;20.98;18.80;;;;;;;4.96;100.00;99987.72;5030130;28;20180;-87
2022/09/29 05:32:20;;;;;;;22.70;18.77;;;;;;;4.95;100.00;99988.66;5011881;28;20381;-86
2022/09/29 05:34:45;;;;;;;19.52;17.40;;;;;;;4.91;100.00;99987.19;5029286;28;20033;-86
2022/09/29 05:37:10;;;;;;;21.52;19.35;;;;;;;4.96;100.00;99985.09;5014766;28;20109;-87
2022/09/29 05:39:36;;;;;;;20.83;18.70;;;;;;;4.90;100.00;99993.31;5010598;28;20386;-87
2022/09/29 05:42:07;;;;;;;20.00;17.98;;;;;;;4.80;100.00;99992.22;5009587;28;20026;-87
2022/09/29 05:44:33;;;;;;;21.50;18.63;;;;;;;4.85;100.00;99999.78;5010032;28;20117;-86
2022/09/29 05:46:58;;;;;;;23.45;19.17;;;;;;;4.88;100.00;99997.78;5010030;28;20116;-86
2022/09/29 05:49:24;;;;;;;21.27;19.20;;;;;;;4.89;100.00;99996.88;5015782;28;20040;-86
2022/09/29 05:51:49;;;;;;;22.60;19.10;;;;;;;4.89;100.00;99994.25;5029921;28;20071;-87
2022/09/29 05:54:15;;;;;;;23.50;20.25;;;;;;;4.91;100.00;99996.75;5015281;28;20768;-86
2022/09/29 05:56:40;;;;;;;25.33;20.42;;;;;;;4.90;100.00;100003.75;5024036;28;20473;-86
2022/09/29 05:59:06;;;;;;;21.10;18.98;;;;;;;4.88;100.00;100000.41;5028948;28;20469;-87
2022/09/29 06:01:31;;;;;;;22.42;19.98;;;;;;;4.86;100.00;99999.66;5028595;28;20085;-87
2022/09/29 06:03:57;;;;;;;22.48;20.17;;;;;;;4.89;100.00;100001.25;5029250;28;20032;-87
2022/09/29 06:06:26;;;;;;;21.73;19.63;;;;;;;4.89;100.00;100007.28;5029132;28;20079;-87
2022/09/29 06:08:51;;;;;;;24.65;21.77;;;;;;;4.90;100.00;100008.13;5028623;28;20497;-87
2022/09/29 06:11:21;;;;;;;23.35;20.98;;;;;;;4.93;100.00;100015.75;5026670;28;20029;-87
2022/09/29 06:13:48;;;;;;;23.58;21.13;;;;;;;4.93;100.00;100013.97;5026265;28;20045;-87
2022/09/29 06:16:15;;;;;;;24.38;21.38;;;;;;;4.91;100.00;100015.84;5018003;28;20029;-87
2022/09/29 06:18:40;;;;;;;23.40;20.83;;;;;;;4.93;100.00;100013.97;5019943;28;20026;-87
2022/09/29 06:21:11;;;;;;;23.77;21.38;;;;;;;4.96;100.00;100019.00;5021195;28;20040;-87
2022/09/29 06:23:38;;;;;;;24.27;20.67;;;;;;;4.98;100.00;100019.72;5018012;28;20026;-87
2022/09/29 06:26:07;;;;;;;23.50;21.13;;;;;;;4.92;100.00;100022.72;5022854;28;20017;-87
2022/09/29 06:28:32;;;;;;;23.80;20.83;;;;;;;5.00;100.00;100027.44;5022375;28;20394;-87
2022/09/29 06:30:59;;;;;;;25.95;20.70;;;;;;;5.01;100.00;100026.50;5019874;28;20028;-87
2022/09/29 06:33:26;;;;;;;28.92;21.75;;;;;;;5.06;100.00;100023.59;5020491;28;21406;-87
2022/09/29 06:38:36;;;;;;;25.85;22.33;;;;;;;5.07;100.00;100033.09;5018684;28;20037;-86
2022/09/29 06:41:01;;;;;;;27.95;21.65;;;;;;;5.09;100.00;100034.66;5018186;28;20397;-87
2022/09/29 06:43:26;;;;;;;27.35;22.88;;;;;;;5.15;100.00;100038.66;5021110;28;20034;-87
2022/09/29 06:45:52;;;;;;;25.67;23.08;;;;;;;5.22;100.00;100040.78;5020285;28;20076;-87
2022/09/29 06:48:17;;;;;;;26.17;23.42;;;;;;;5.25;100.00;100048.41;5018213;28;20028;-87
2022/09/29 06:50:42;;;;;;;26.17;23.30;;;;;;;5.34;100.00;100045.19;5021425;28;20040;-86
2022/09/29 06:53:08;;;;;;;27.35;23.40;;;;;;;5.42;100.00;100049.91;5020149;28;20076;-86
2022/09/29 06:55:34;;;;;;;27.15;23.80;;;;;;;5.52;100.00;100050.97;5019146;28;20108;-86
2022/09/29 06:57:59;;;;;;;29.55;23.67;;;;;;;5.61;100.00;100049.56;5018869;28;20077;-86
2022/09/29 07:00:24;;;;;;;31.38;23.08;;;;;;;5.74;100.00;100049.56;4999615;28;20029;-86
2022/09/29 07:02:49;;;;;;;27.63;23.52;;;;;;;5.85;100.00;100052.28;5023426;28;20025;-86
2022/09/29 07:05:15;;;;;;;26.90;23.45;;;;;;;5.92;100.00;100050.97;5017660;28;20033;-86
2022/09/29 07:07:41;;;;;;;25.30;21.98;;;;;;;6.06;100.00;100061.34;5027837;28;20762;-85
2022/09/29 07:10:06;;;;;;;27.83;22.30;;;;;;;6.17;100.00;100068.44;5008797;28;20532;-86
2022/09/29 07:12:32;;;;;;;26.88;21.33;;;;;;;6.29;100.00;100065.81;5027900;28;20550;-86
2022/09/29 07:14:57;;;;;;;25.73;21.20;;;;;;;6.37;100.00;100064.44;5028515;28;20024;-85
2022/09/29 07:17:22;;;;;;;27.40;20.88;;;;;;;6.49;100.00;100056.59;5028592;28;20049;-86
2022/09/29 07:19:48;;;;;;;24.70;20.85;;;;;;;6.62;100.00;100059.19;5016276;28;20022;-85
2022/09/29 07:22:13;;;;;;;24.38;20.40;;;;;;;6.71;100.00;100066.38;5008276;28;20042;-88
2022/09/29 07:24:38;;;;;;;23.98;19.83;;;;;;;6.83;100.00;100062.06;5009605;28;20462;-84
2022/09/29 07:27:04;;;;;;;23.48;19.65;;;;;;;6.96;100.00;100075.09;5000077;28;20033;-84
2022/09/29 07:29:31;;;;;;;24.13;20.40;;;;;;;7.05;100.00;100069.22;5009539;28;20062;-85
2022/09/29 07:31:58;;;;;;;22.77;20.23;;;;;;;7.13;100.00;100074.72;5008473;28;20037;-84
2022/09/29 07:34:23;;;;;;;21.38;18.92;;;;;;;7.24;100.00;100072.19;5012309;28;20026;-84
2022/09/29 07:36:49;;;;;;;21.17;18.98;;;;;;;7.33;100.00;100081.97;5013269;28;20033;-84
2022/09/29 07:39:14;;;;;;;23.90;18.48;;;;;;;7.41;100.00;100086.66;5012362;28;20034;-84
2022/09/29 07:41:39;;;;;;;24.38;19.20;;;;;;;7.51;100.00;100079.78;5012468;28;20080;-82
2022/09/29 07:44:05;;;;;;;24.50;18.70;;;;;;;7.66;100.00;100083.06;5013066;28;20473;-84
2022/09/29 07:46:31;;;;;;;20.17;18.17;;;;;;;7.65;100.00;100084.03;5012925;28;20486;-85
2022/09/29 07:48:57;;;;;;;22.85;17.75;;;;;;;7.71;100.00;100088.81;4993921;28;20125;-84
2022/09/29 07:51:22;;;;;;;21.83;17.60;;;;;;;7.85;100.00;100088.59;5012201;28;20114;-82
2022/09/29 07:53:47;;;;;;;21.65;16.83;;;;;;;7.98;100.00;100091.97;5013051;28;20022;-83
2022/09/29 07:56:18;;;;;;;20.65;17.15;;;;;;;8.03;100.00;100095.09;5011439;28;20525;-82
2022/09/29 07:58:45;;;;;;;20.40;17.15;;;;;;;8.10;100.00;100098.91;5012107;28;20117;-82
2022/09/29 08:01:12;;;;;;;25.38;17.25;;;;;;;8.20;100.00;100095.59;5010483;28;20026;-82
2022/09/29 08:03:47;;;;;;;20.15;16.90;;;;;;;8.28;100.00;100103.69;5012607;28;20493;-82
2022/09/29 08:06:13;;;;;;;21.70;16.27;;;;;;;8.44;100.00;100102.44;5011833;28;20065;-82
2022/09/29 08:08:40;;;;;;;20.25;15.90;;;;;;;8.51;100.00;100102.81;5011697;28;20365;-82
2022/09/29 08:11:12;;;;;;;17.73;15.82;;;;;;;8.65;100.00;100099.94;5010518;28;20033;-82
2022/09/29 08:13:38;;;;;;;18.90;15.50;;;;;;;8.83;100.00;100109.97;5007077;28;20026;-83
2022/09/29 08:16:10;;;;;;;24.30;15.23;;;;;;;8.90;100.00;100109.34;4993658;28;20528;-83
2022/09/29 08:18:36;;;;;;;23.98;15.13;;;;;;;8.98;100.00;100116.63;5029742;28;20098;-83
2022/09/29 08:21:02;;;;;;;19.17;15.80;;;;;;;9.06;99.83;100117.69;5028716;28;20034;-83
2022/09/29 08:23:28;;;;;;;18.90;15.18;;;;;;;9.24;99.47;100112.78;5030388;28;20013;-83
2022/09/29 08:26:01;;;;;;;18.52;14.80;;;;;;;9.23;96.91;100120.78;5030263;28;20189;-82
2022/09/29 08:28:27;;;;;;;18.35;15.13;;;;;;;9.37;96.53;100116.06;5026227;28;20018;-82
2022/09/29 08:30:52;;;;;;;20.50;14.65;;;;;;;9.40;96.60;100126.31;5011550;28;20084;-83
2022/09/29 08:33:17;;;;;;;18.48;14.90;;;;;;;9.51;96.03;100121.97;5011261;28;20025;-83
2022/09/29 08:35:43;;;;;;;17.15;14.88;;;;;;;9.59;95.80;100127.44;5012153;28;20022;-83
2022/09/29 08:38:08;;;;;;;17.85;14.73;;;;;;;9.77;96.25;100133.00;5013413;28;20104;-84
2022/09/29 08:40:34;;;;;;;18.02;14.30;;;;;;;9.79;95.00;100137.16;5031830;28;20423;-84
2022/09/29 08:43:14;;;;;;;18.80;13.77;;;;;;;9.79;93.39;100142.44;5031220;28;20030;-84
2022/09/29 08:45:49;;;;;;;17.35;13.70;;;;;;;9.68;92.61;100145.94;5023632;28;20030;-82
2022/09/29 08:48:25;;;;;;;15.55;13.15;;;;;;;9.57;92.57;100143.31;5020877;28;20053;-82
2022/09/29 08:51:02;;;;;;;17.02;13.93;;;;;;;9.56;93.23;100138.19;5010256;28;20061;-83
2022/09/29 08:53:30;;;;;;;16.85;14.20;;;;;;;9.41;93.16;100143.75;5030833;28;20017;-83
2022/09/29 08:56:03;;;;;;;21.90;13.98;;;;;;;9.43;94.22;100144.44;5031481;28;20497;-82
2022/09/29 08:58:30;;;;;;;18.90;13.38;;;;;;;9.39;94.42;100145.66;5012341;28;20518;-81
2022/09/29 09:01:23;;;;;;;17.50;13.80;;;;;;;9.40;95.10;100152.56;5031356;28;20040;-81
2022/09/29 09:03:59;;;;;;;19.15;13.82;;;;;;;9.49;94.73;100158.03;5030823;28;20065;-78
2022/09/29 09:06:41;;;;;;;21.08;13.98;;;;;;;9.50;95.26;100151.81;5025501;28;20033;-79
2022/09/29 09:09:25;;;;;;;19.20;14.30;;;;;;;9.57;95.32;100156.47;5023677;28;20479;-79
2022/09/29 09:12:26;;;;;;;19.10;14.68;;;;;;;9.60;95.73;100153.56;5027314;28;20632;-79
2022/09/29 09:14:54;;;;;;;18.95;13.98;;;;;;;9.66;95.40;100155.72;5030725;28;20390;-79
2022/09/29 09:17:34;;;;;;;16.23;13.65;;;;;;;9.79;93.90;100167.88;5029797;28;20041;-81
2022/09/29 09:20:02;;;;;;;17.33;13.70;;;;;;;9.85;93.13;100162.94;5029337;28;20037;-80
2022/09/29 09:22:52;;;;;;;14.82;13.30;;;;;;;10.00;94.76;100161.66;5030218;28;20376;-80
2022/09/29 09:25:30;;;;;;;17.38;13.18;;;;;;;10.16;93.43;100171.75;5030145;28;20094;-80
2022/09/29 09:28:10;;;;;;;14.82;12.68;;;;;;;10.48;92.96;100166.47;5030474;28;20485;-80
2022/09/29 09:30:52;;;;;;;14.40;12.13;;;;;;;10.60;91.93;100170.69;5030684;28;20445;-80
2022/09/29 09:33:52;;;;;;;13.70;11.55;;;;;;;10.94;93.08;100165.19;5029349;28;20402;-80
2022/09/29 09:36:41;;;;;;;12.95;11.60;;;;;;;11.16;89.85;100161.50;5024531;28;20046;-80
2022/09/29 09:39:15;;;;;;;13.25;11.60;;;;;;;11.32;88.84;100166.28;5029915;28;20056;-80
2022/09/29 09:41:44;;;;;;;13.52;11.60;;;;;;;11.40;87.04;100163.78;5029915;28;20057;-80
2022/09/29 09:44:21;;;;;;;15.70;11.00;;;;;;;11.54;87.45;100155.50;5030141;28;20112;-80
2022/09/29 09:46:57;;;;;;;12.60;10.27;;;;;;;11.83;87.40;100160.84;5029670;28;20132;-79
2022/09/29 09:49:30;;;;;;;12.02;10.38;;;;;;;12.09;85.25;100163.75;5029540;28;20090;-80
2022/09/29 09:52:10;;;;;;;13.05;9.50;;;;;;;12.34;85.43;100163.16;5030385;28;20025;-79
2022/09/29 09:54:43;;;;;;;11.80;8.88;;;;;;;12.53;82.50;100168.41;5029670;28;20075;-80
2022/09/29 09:57:34;;;;;;;8.88;7.35;;;;;;;12.91;83.15;100163.16;5029903;28;20478;-79
2022/09/29 10:00:15;;;;;;;9.18;6.82;;;;;;;12.98;82.11;100172.97;5030165;28;20049;-79
2022/09/29 10:02:49;;;;;;;7.72;6.82;;;;;;;13.02;80.89;100168.22;5028816;28;20104;-80
2022/09/29 10:05:18;;;;;;;6.95;6.10;;;;;;;13.11;78.84;100165.53;5011825;28;20064;-82
2022/09/29 10:07:44;;;;;;;6.90;6.15;;;;;;;13.18;77.19;100169.28;5029306;28;20021;-82
2022/09/29 10:10:17;;;;;;;9.55;5.65;;;;;;;13.30;78.04;100174.41;5029528;28;20029;-81
2022/09/29 10:12:44;;;;;;;6.07;4.88;;;;;;;13.39;77.02;100168.22;5029477;28;20108;-82
2022/09/29 10:15:45;;;;;;;9.52;4.50;;;;;;;13.54;79.23;100165.91;5028954;28;20056;-83
2022/09/29 10:18:15;;;;;;;4.95;4.40;;;;;;;13.42;75.43;100175.84;4945241;28;20061;-82
2022/09/29 10:20:41;;;;;;;4.63;3.80;;;;;;;13.64;74.19;100166.69;5008589;28;20108;-81
2022/09/29 10:23:45;;;;;;;4.93;4.13;;;;;;;13.75;75.25;100169.94;5028259;28;20116;-82
2022/09/29 10:26:19;;;;;;;6.07;4.20;;;;;;;13.81;73.50;100168.50;5028113;28;20063;-82
2022/09/29 10:28:59;;;;;;;7.05;4.43;;;;;;;13.94;75.05;100181.34;5028506;28;20111;-81
2022/09/29 10:31:29;;;;;;;6.68;4.53;;;;;;;13.95;73.23;100185.63;5022032;28;20025;-81
2022/09/29 10:34:14;;;;;;;6.38;4.38;;;;;;;14.10;73.63;100178.84;5022871;28;20043;-81
2022/09/29 10:36:52;;;;;;;6.18;4.50;;;;;;;14.19;73.27;100185.88;5028272;28;20013;-81
2022/09/29 10:39:44;;;;;;;8.05;4.63;;;;;;;14.32;75.54;100182.81;5028757;28;20136;-82
2022/09/29 10:42:39;;;;;;;6.38;4.75;;;;;;;14.41;74.19;100180.09;5027436;28;20091;-79
2022/09/29 10:45:15;;;;;;;5.72;4.82;;;;;;;14.33;73.05;100182.66;5028639;28;20029;-82
2022/09/29 10:47:45;;;;;;;7.22;4.95;;;;;;;14.38;70.94;100187.50;5028434;28;20398;-82
2022/09/29 10:50:13;;;;;;;8.90;4.55;;;;;;;14.49;69.49;100184.66;5028554;28;20109;-82
2022/09/29 10:52:47;;;;;;;7.15;4.28;;;;;;;14.53;69.87;100186.00;5029401;28;20108;-82
2022/09/29 10:55:24;;;;;;;10.18;4.50;;;;;;;14.74;72.42;100175.84;5028860;28;20033;-82
2022/09/29 10:57:55;;;;;;;5.45;4.32;;;;;;;14.86;70.15;100191.50;5029250;28;20078;-82
2022/09/29 11:00:25;;;;;;;5.38;4.32;;;;;;;14.98;68.86;100196.38;5029614;28;20029;-82
2022/09/29 11:02:52;;;;;;;5.35;4.10;;;;;;;14.94;67.51;100195.03;5029626;28;20033;-82
2022/09/29 11:05:22;;;;;;;5.80;3.55;;;;;;;15.08;66.16;100190.09;5010547;28;20416;-80
2022/09/29 11:07:50;;;;;;;5.35;3.40;;;;;;;15.15;64.85;100188.47;5030880;28;20514;-79
2022/09/29 11:10:30;;;;;;;5.55;3.40;;;;;;;14.98;67.20;100191.06;5033017;28;20388;-80
2022/09/29 11:12:57;;;;;;;4.35;2.92;;;;;;;15.24;66.58;100190.19;5032502;28;20025;-80
2022/09/29 11:15:37;;;;;;;3.35;2.60;;;;;;;15.37;65.28;100190.56;5032767;28;20082;-79
2022/09/29 11:18:18;;;;;;;2.75;1.50;;;;;;;15.57;66.23;100191.94;5031795;28;20091;-79
2022/09/29 11:20:50;;;;;;;2.30;1.70;;;;;;;15.69;63.76;100189.88;5033027;28;20029;-79
2022/09/29 11:23:34;;;;;;;4.85;2.25;;;;;;;15.95;62.63;100185.25;5032626;28;20029;-79
2022/09/29 11:26:14;;;;;;;4.03;1.90;;;;;;;15.91;63.87;100191.06;5032837;28;20076;-79
2022/09/29 11:29:02;;;;;;;3.75;2.13;;;;;;;15.93;64.66;100186.41;5033224;28;20100;-80
2022/09/29 11:31:38;;;;;;;4.57;2.60;;;;;;;15.96;64.25;100191.41;5032782;28;20057;-79
2022/09/29 11:34:51;;;;;;;4.60;2.30;;;;;;;16.03;65.72;100187.13;5032358;28;20100;-79
2022/09/29 11:37:46;;;;;;;;;;;;;;;16.26;69.44;100190.75;5032838;28;20308;-79